ETD460 OMAA-YMML
Flight info
| Callsign | ETD460 |
|---|---|
| Flight time | N/A |
| Altitude | 39000 |
| Route | KANIP4K KANIP N318 TOLDA P570 EMURU M300 VASTU P895 BIKOK |
| Aircraft | A35K/H-V/N |
Departure
| Time | N/A |
|---|---|
| Airport | Zayed International Airport (OMAA) |
Arrival
| Time | 2026-05-01 11:41 |
|---|---|
| Airport | Melbourne Airport (YMML) |
| Time | Latitude | Longitude | Altitude | Speed | Heading |
|---|---|---|---|---|---|
| 2026-05-01 11:20 | -36.79217 | 143.96295 | 23127 ft | 428 kts | 109° |
| 2026-05-01 11:20 | -36.80319 | 143.99718 | 22664 ft | 423 kts | 109° |
| 2026-05-01 11:20 | -36.81412 | 144.03116 | 22220 ft | 419 kts | 109° |
| 2026-05-01 11:21 | -36.82477 | 144.06430 | 21787 ft | 415 kts | 109° |
| 2026-05-01 11:21 | -36.83545 | 144.09758 | 21363 ft | 411 kts | 109° |
| 2026-05-01 11:21 | -36.84600 | 144.13052 | 20901 ft | 407 kts | 109° |
| 2026-05-01 11:21 | -36.85644 | 144.16311 | 20476 ft | 403 kts | 109° |
| 2026-05-01 11:22 | -36.86681 | 144.19556 | 20041 ft | 399 kts | 109° |
| 2026-05-01 11:22 | -36.87705 | 144.22761 | 19620 ft | 396 kts | 109° |
| 2026-05-01 11:22 | -36.88721 | 144.25945 | 19184 ft | 393 kts | 109° |
| 2026-05-01 11:22 | -36.89727 | 144.29101 | 18768 ft | 389 kts | 109° |
| 2026-05-01 11:23 | -36.90728 | 144.32243 | 18332 ft | 386 kts | 109° |
| 2026-05-01 11:23 | -36.91717 | 144.35349 | 17881 ft | 382 kts | 109° |
| 2026-05-01 11:23 | -36.92892 | 144.38311 | 17471 ft | 380 kts | 121° |
| 2026-05-01 11:23 | -36.94461 | 144.40908 | 17089 ft | 379 kts | 128° |
| 2026-05-01 11:24 | -36.96155 | 144.43409 | 16684 ft | 376 kts | 128° |
| 2026-05-01 11:24 | -36.97864 | 144.45884 | 16290 ft | 374 kts | 129° |
| 2026-05-01 11:24 | -37.01253 | 144.50757 | 15476 ft | 369 kts | 129° |
| 2026-05-01 11:25 | -37.02944 | 144.53184 | 15051 ft | 367 kts | 129° |
| 2026-05-01 11:25 | -37.06281 | 144.57973 | 14240 ft | 363 kts | 129° |
| 2026-05-01 11:25 | -37.07934 | 144.60347 | 13792 ft | 361 kts | 128° |
| 2026-05-01 11:26 | -37.09577 | 144.62708 | 13345 ft | 358 kts | 128° |
| 2026-05-01 11:26 | -37.12823 | 144.67380 | 12478 ft | 354 kts | 128° |
| 2026-05-01 11:26 | -37.14420 | 144.69680 | 12028 ft | 353 kts | 128° |
| 2026-05-01 11:27 | -37.16087 | 144.71937 | 11576 ft | 353 kts | 136° |
| 2026-05-01 11:27 | -37.18158 | 144.73461 | 11410 ft | 343 kts | 161° |
| 2026-05-01 11:27 | -37.20431 | 144.74185 | 11272 ft | 331 kts | 168° |
| 2026-05-01 11:27 | -37.22649 | 144.74754 | 11097 ft | 321 kts | 168° |
| 2026-05-01 11:28 | -37.24841 | 144.75319 | 10626 ft | 322 kts | 168° |
| 2026-05-01 11:28 | -37.27040 | 144.75894 | 10238 ft | 322 kts | 168° |
| 2026-05-01 11:28 | -37.29227 | 144.76470 | 9832 ft | 320 kts | 168° |
| 2026-05-01 11:29 | -37.33566 | 144.77620 | 8997 ft | 317 kts | 168° |
| 2026-05-01 11:29 | -37.35733 | 144.78090 | 8619 ft | 313 kts | 173° |
| 2026-05-01 11:29 | -37.39962 | 144.78761 | 8277 ft | 307 kts | 172° |
| 2026-05-01 11:30 | -37.42078 | 144.79113 | 8060 ft | 307 kts | 172° |
| 2026-05-01 11:30 | -37.44183 | 144.79474 | 7839 ft | 306 kts | 172° |
| 2026-05-01 11:30 | -37.46309 | 144.79604 | 7617 ft | 305 kts | 188° |
| 2026-05-01 11:30 | -37.48343 | 144.78911 | 7410 ft | 301 kts | 202° |
| 2026-05-01 11:31 | -37.50291 | 144.77973 | 7197 ft | 301 kts | 204° |
| 2026-05-01 11:31 | -37.52247 | 144.77016 | 6987 ft | 301 kts | 203° |
| 2026-05-01 11:31 | -37.54197 | 144.76074 | 6759 ft | 300 kts | 203° |
| 2026-05-01 11:31 | -37.56130 | 144.75147 | 6556 ft | 301 kts | 203° |
| 2026-05-01 11:32 | -37.58091 | 144.74224 | 6332 ft | 300 kts | 201° |
| 2026-05-01 11:32 | -37.60138 | 144.73704 | 6120 ft | 301 kts | 185° |
| 2026-05-01 11:32 | -37.62220 | 144.73546 | 5908 ft | 300 kts | 183° |
| 2026-05-01 11:32 | -37.64308 | 144.73418 | 5696 ft | 299 kts | 183° |
| 2026-05-01 11:33 | -37.66384 | 144.73281 | 5482 ft | 298 kts | 183° |
| 2026-05-01 11:33 | -37.68452 | 144.73139 | 5272 ft | 296 kts | 183° |
| 2026-05-01 11:33 | -37.70509 | 144.72996 | 5068 ft | 295 kts | 183° |
| 2026-05-01 11:33 | -37.72516 | 144.72905 | 4904 ft | 285 kts | 180° |
| 2026-05-01 11:34 | -37.74476 | 144.72895 | 4700 ft | 277 kts | 180° |
| 2026-05-01 11:34 | -37.76385 | 144.72892 | 4479 ft | 272 kts | 179° |
| 2026-05-01 11:34 | -37.78269 | 144.72882 | 4254 ft | 270 kts | 180° |
| 2026-05-01 11:34 | -37.80145 | 144.72890 | 4063 ft | 268 kts | 175° |
| 2026-05-01 11:35 | -37.81890 | 144.73546 | 3887 ft | 259 kts | 143° |
| 2026-05-01 11:35 | -37.83030 | 144.75127 | 3760 ft | 238 kts | 114° |
| 2026-05-01 11:35 | -37.83796 | 144.76932 | 3606 ft | 227 kts | 111° |
| 2026-05-01 11:35 | -37.84302 | 144.78748 | 3434 ft | 212 kts | 90° |
| 2026-05-01 11:36 | -37.84242 | 144.80544 | 3248 ft | 198 kts | 75° |
| 2026-05-01 11:36 | -37.84026 | 144.82242 | 3111 ft | 195 kts | 73° |
| 2026-05-01 11:36 | -37.83808 | 144.83914 | 3113 ft | 188 kts | 74° |
| 2026-05-01 11:36 | -37.83406 | 144.85431 | 2896 ft | 180 kts | 53° |
| 2026-05-01 11:37 | -37.82396 | 144.86271 | 2783 ft | 177 kts | 12° |
| 2026-05-01 11:37 | -37.81171 | 144.86431 | 2734 ft | 178 kts | 358° |
| 2026-05-01 11:37 | -37.79952 | 144.86190 | 2606 ft | 174 kts | 353° |
| 2026-05-01 11:37 | -37.78788 | 144.85997 | 2356 ft | 163 kts | 355° |
| 2026-05-01 11:38 | -37.77710 | 144.85798 | 2157 ft | 151 kts | 354° |
| 2026-05-01 11:38 | -37.76719 | 144.85607 | 1955 ft | 140 kts | 357° |
| 2026-05-01 11:38 | -37.75792 | 144.85440 | 1764 ft | 130 kts | 356° |
| 2026-05-01 11:38 | -37.74896 | 144.85273 | 1609 ft | 130 kts | 357° |
| 2026-05-01 11:39 | -37.73990 | 144.85107 | 1438 ft | 131 kts | 356° |
| 2026-05-01 11:39 | -37.73098 | 144.84941 | 1255 ft | 131 kts | 356° |
| 2026-05-01 11:39 | -37.72172 | 144.84769 | 1089 ft | 134 kts | 354° |
| 2026-05-01 11:39 | -37.71253 | 144.84596 | 856 ft | 136 kts | 353° |
| 2026-05-01 11:40 | -37.70318 | 144.84423 | 700 ft | 136 kts | 352° |
| 2026-05-01 11:40 | -37.69415 | 144.84254 | 617 ft | 141 kts | 352° |
| 2026-05-01 11:40 | -37.68447 | 144.84076 | 429 ft | 138 kts | 352° |
| 2026-05-01 11:40 | -37.67517 | 144.83906 | 383 ft | 129 kts | 351° |
| 2026-05-01 11:41 | -37.66796 | 144.83769 | 407 ft | 66 kts | 351° |
| 2026-05-01 11:41 | -37.66593 | 144.83742 | 411 ft | 4 kts | 19° |
| 2026-05-01 11:41 | -37.66534 | 144.83797 | 412 ft | 15 kts | 46° |
| 2026-05-01 11:41 | -37.66511 | 144.83924 | 413 ft | 16 kts | 91° |
| 2026-05-01 11:42 | -37.66516 | 144.84022 | 407 ft | 9 kts | 94° |
| 2026-05-01 11:42 | -37.66521 | 144.84095 | 415 ft | 0 kts | 94° |
| 2026-05-01 11:42 | -37.66521 | 144.84103 | 415 ft | 2 kts | 94° |
| 2026-05-01 11:42 | -37.66522 | 144.84115 | 415 ft | 0 kts | 94° |
| 2026-05-01 11:43 | -37.66522 | 144.84119 | 415 ft | 2 kts | 94° |
| 2026-05-01 11:43 | -37.66523 | 144.84127 | 415 ft | 0 kts | 95° |
| 2026-05-01 11:44 | -37.66524 | 144.84130 | 415 ft | 1 kts | 106° |
| 2026-05-01 11:45 | -37.66536 | 144.84136 | 405 ft | 4 kts | 157° |
| 2026-05-01 11:45 | -37.66582 | 144.84154 | 409 ft | 9 kts | 166° |
| 2026-05-01 11:45 | -37.66663 | 144.84171 | 411 ft | 14 kts | 158° |
| 2026-05-01 11:45 | -37.66691 | 144.84260 | 411 ft | 11 kts | 86° |
| 2026-05-01 11:46 | -37.66683 | 144.84361 | 413 ft | 12 kts | 84° |
| 2026-05-01 11:46 | -37.66672 | 144.84458 | 415 ft | 11 kts | 81° |
| 2026-05-01 11:46 | -37.66658 | 144.84561 | 410 ft | 12 kts | 81° |
| 2026-05-01 11:46 | -37.66655 | 144.84585 | 412 ft | 1 kts | 81° |
| 2026-05-01 11:47 | -37.66664 | 144.84601 | 408 ft | 3 kts | 147° |
| 2026-05-01 11:47 | -37.66726 | 144.84623 | 410 ft | 12 kts | 162° |
| 2026-05-01 11:47 | -37.66733 | 144.84626 | 410 ft | 0 kts | 162° |